createdAt,value
2023-05-04T00:00:12.452Z,6.14
2023-05-04T00:06:18.220Z,6.12
2023-05-04T00:12:15.440Z,6.27
2023-05-04T00:15:01.297Z,6.30
2023-05-04T00:21:19.004Z,6.17
2023-05-04T00:24:05.549Z,6.25
2023-05-04T00:26:51.761Z,6.31
2023-05-04T00:29:38.180Z,6.26
2023-05-04T00:35:57.607Z,6.10
2023-05-04T00:38:52.202Z,6.22
2023-05-04T00:41:45.638Z,6.16
2023-05-04T00:44:41.204Z,6.09
2023-05-04T00:47:33.736Z,6.05
2023-05-04T00:50:27.106Z,5.99
2023-05-04T00:53:19.791Z,5.97
2023-05-04T00:56:16.097Z,5.99
2023-05-04T00:59:08.437Z,5.93
2023-05-04T01:02:09.575Z,5.89
2023-05-04T01:05:02.822Z,5.83
2023-05-04T01:11:28.561Z,5.81
2023-05-04T01:14:49.907Z,5.74
2023-05-04T01:17:43.006Z,5.81
2023-05-04T01:20:36.196Z,5.86
2023-05-04T01:23:30.025Z,5.75
2023-05-04T01:26:25.672Z,5.86
2023-05-04T01:29:20.975Z,5.78
2023-05-04T01:32:16.072Z,5.72
2023-05-04T01:35:09.176Z,5.69
2023-05-04T01:38:01.635Z,5.71
2023-05-04T01:40:56.820Z,5.68
2023-05-04T01:47:10.684Z,5.67
2023-05-04T01:53:50.525Z,5.44
2023-05-04T01:56:45.226Z,5.55
2023-05-04T02:02:48.448Z,5.58
2023-05-04T02:05:44.359Z,5.42
2023-05-04T02:08:36.495Z,5.49
2023-05-04T02:11:28.889Z,5.53
2023-05-04T02:14:22.673Z,5.48
2023-05-04T02:17:15.858Z,5.53
2023-05-04T02:20:10.125Z,5.50
2023-05-04T02:23:02.616Z,5.49
2023-05-04T02:25:55.951Z,5.42
2023-05-04T02:28:49.756Z,5.44
2023-05-04T02:31:44.075Z,5.45
2023-05-04T02:34:36.971Z,5.45
2023-05-04T02:37:29.599Z,5.50
2023-05-04T02:40:22.862Z,5.48
2023-05-04T02:43:15.775Z,5.42
2023-05-04T02:46:08.878Z,5.45
2023-05-04T02:49:03.005Z,5.41
2023-05-04T02:51:55.679Z,5.38
2023-05-04T02:58:01.130Z,5.32
2023-05-04T03:00:54.559Z,5.39
2023-05-04T03:03:47.570Z,5.43
2023-05-04T03:06:42.264Z,5.52
2023-05-04T03:09:34.413Z,5.58
2023-05-04T03:12:26.724Z,5.58
2023-05-04T03:15:19.295Z,5.61
2023-05-04T03:18:11.596Z,5.65
2023-05-04T03:21:04.610Z,5.65
2023-05-04T03:23:59.492Z,5.61
2023-05-04T03:26:53.546Z,5.60
2023-05-04T03:29:46.767Z,5.60
2023-05-04T03:32:40.584Z,5.56
2023-05-04T03:35:33.671Z,5.64
2023-05-04T03:38:28.528Z,5.68
2023-05-04T03:41:26.303Z,5.68
2023-05-04T03:44:18.649Z,5.65
2023-05-04T03:47:11.451Z,5.64
2023-05-04T03:50:03.998Z,5.64
2023-05-04T03:52:56.870Z,5.62
2023-05-04T03:55:51.557Z,5.59
2023-05-04T04:01:35.427Z,5.60
2023-05-04T04:07:41.318Z,5.55
2023-05-04T04:13:49.932Z,5.67
2023-05-04T04:16:44.246Z,5.71
2023-05-04T04:19:36.252Z,5.80
2023-05-04T04:25:39.397Z,5.98
2023-05-04T04:31:49.309Z,6.19
2023-05-04T04:34:41.599Z,6.35
2023-05-04T04:37:34.442Z,6.49
2023-05-04T04:43:47.925Z,6.93
2023-05-04T04:46:40.583Z,7.07
2023-05-04T04:49:34.890Z,7.30
2023-05-04T04:52:27.654Z,7.56
2023-05-04T04:55:20.804Z,7.83
2023-05-04T04:58:13.604Z,8.13
2023-05-04T05:01:07.949Z,8.44
2023-05-04T05:04:00.675Z,8.78
2023-05-04T05:10:09.458Z,9.51
2023-05-04T05:16:14.145Z,10.33
2023-05-04T05:19:06.703Z,10.89
2023-05-04T05:25:08.119Z,12.01
2023-05-04T05:28:00.674Z,12.42
2023-05-04T05:30:53.967Z,12.76
2023-05-04T05:34:02.616Z,13.11
2023-05-04T05:36:53.667Z,13.22
2023-05-04T05:39:46.779Z,13.40
2023-05-04T05:45:53.469Z,13.58
2023-05-04T05:52:02.057Z,13.91
2023-05-04T05:58:10.932Z,14.43
2023-05-04T06:04:17.310Z,14.96
2023-05-04T06:07:09.766Z,15.30
2023-05-04T06:10:02.737Z,15.57
2023-05-04T06:12:55.678Z,15.92
2023-05-04T06:15:52.935Z,16.14
2023-05-04T06:18:46.128Z,16.55
2023-05-04T06:21:39.850Z,16.95
2023-05-04T06:24:32.772Z,17.27
2023-05-04T06:27:28.696Z,17.63
2023-05-04T06:30:24.185Z,17.88
2023-05-04T06:33:17.183Z,18.06
2023-05-04T06:36:10.314Z,18.19
2023-05-04T06:39:04.159Z,18.36
2023-05-04T06:41:57.018Z,18.52
2023-05-04T06:44:52.153Z,18.71
2023-05-04T06:47:44.481Z,18.87
2023-05-04T06:53:48.632Z,19.47
2023-05-04T07:00:10.563Z,20.95
2023-05-04T07:03:03.809Z,22.23
2023-05-04T07:09:09.053Z,24.04
2023-05-04T07:12:01.471Z,24.23
2023-05-04T07:14:53.617Z,24.41
2023-05-04T07:17:48.433Z,24.06
2023-05-04T07:20:42.900Z,24.09
2023-05-04T07:23:35.703Z,24.01
2023-05-04T07:26:34.047Z,24.62
2023-05-04T07:29:26.554Z,25.09
2023-05-04T07:32:19.744Z,24.59
2023-05-04T07:35:14.637Z,24.14
2023-05-04T07:38:08.127Z,23.53
2023-05-04T07:41:00.505Z,22.50
2023-05-04T07:43:52.700Z,22.37
2023-05-04T07:46:45.586Z,22.30
2023-05-04T07:49:38.785Z,22.21
2023-05-04T07:52:33.538Z,22.48
2023-05-04T07:55:28.812Z,23.39
2023-05-04T08:01:57.894Z,24.19
2023-05-04T08:05:08.614Z,24.14
2023-05-04T08:07:58.796Z,24.44
2023-05-04T08:14:38.528Z,23.93
2023-05-04T08:17:46.757Z,24.18
2023-05-04T08:20:38.604Z,24.96
2023-05-04T08:23:34.048Z,25.68
2023-05-04T08:26:26.874Z,25.90
2023-05-04T08:29:31.534Z,25.94
2023-05-04T08:32:24.682Z,26.26
2023-05-04T08:35:18.078Z,25.44
2023-05-04T08:38:10.346Z,25.43
2023-05-04T08:41:04.887Z,25.48
2023-05-04T08:43:59.447Z,25.18
2023-05-04T08:47:16.937Z,25.72
2023-05-04T08:50:10.593Z,25.95
2023-05-04T08:53:19.800Z,25.24
2023-05-04T08:56:14.501Z,25.29
2023-05-04T09:02:28.920Z,25.40
2023-05-04T09:05:22.049Z,24.92
2023-05-04T09:08:15.259Z,25.11
2023-05-04T09:11:07.529Z,24.81
2023-05-04T09:14:00.966Z,24.02
2023-05-04T09:20:14.911Z,24.27
2023-05-04T09:26:12.528Z,24.94
2023-05-04T09:29:16.138Z,25.10
2023-05-04T09:32:12.225Z,25.57
2023-05-04T09:35:06.278Z,25.34
2023-05-04T09:37:58.848Z,25.62
2023-05-04T09:40:52.045Z,25.83
2023-05-04T09:43:48.140Z,26.00
2023-05-04T09:46:41.911Z,26.03
2023-05-04T09:49:36.188Z,25.99
2023-05-04T09:52:27.678Z,26.19
2023-05-04T09:55:21.577Z,26.09
2023-05-04T09:58:15.869Z,26.55
2023-05-04T10:01:09.225Z,26.78
2023-05-04T10:04:03.913Z,27.03
2023-05-04T10:06:57.289Z,26.55
2023-05-04T10:09:50.177Z,26.62
2023-05-04T10:12:59.886Z,26.47
2023-05-04T10:16:01.070Z,26.03
2023-05-04T10:22:18.537Z,26.38
2023-05-04T10:25:23.700Z,26.98
2023-05-04T10:28:28.531Z,26.66
2023-05-04T10:34:49.801Z,26.50
2023-05-04T10:37:37.905Z,26.44
2023-05-04T10:40:37.501Z,27.06
2023-05-04T10:46:35.984Z,27.03
2023-05-04T10:49:22.840Z,27.04
2023-05-04T10:52:10.652Z,27.07
2023-05-04T10:58:04.807Z,26.86
2023-05-04T11:00:51.513Z,26.98
2023-05-04T11:07:08.602Z,26.51
2023-05-04T11:10:38.927Z,26.33
2023-05-04T11:13:35.074Z,26.25
2023-05-04T11:16:28.480Z,26.19
2023-05-04T11:22:56.416Z,26.22
2023-05-04T11:25:48.391Z,26.35
2023-05-04T11:28:42.987Z,26.65
2023-05-04T11:31:35.451Z,26.83
2023-05-04T11:34:27.704Z,26.95
2023-05-04T11:37:34.748Z,25.85
2023-05-04T11:40:27.992Z,26.27
2023-05-04T11:43:21.041Z,26.82
2023-05-04T11:46:10.258Z,26.99
2023-05-04T11:49:04.044Z,27.24
2023-05-04T11:52:06.861Z,27.21
2023-05-04T11:54:59.704Z,27.27
2023-05-04T12:01:27.139Z,27.66
2023-05-04T12:04:19.629Z,27.28
2023-05-04T12:07:12.744Z,26.35
2023-05-04T12:10:06.328Z,26.68
2023-05-04T12:13:23.922Z,26.44
2023-05-04T12:16:18.000Z,26.50
2023-05-04T12:19:13.350Z,26.39
2023-05-04T12:25:22.455Z,26.25
2023-05-04T12:28:14.808Z,25.91
2023-05-04T12:31:07.838Z,25.90
2023-05-04T12:34:00.601Z,25.86
2023-05-04T12:36:55.932Z,26.08
2023-05-04T12:39:48.834Z,26.37
2023-05-04T12:42:42.240Z,26.80
2023-05-04T12:45:34.590Z,26.85
2023-05-04T12:48:21.943Z,27.02
2023-05-04T12:51:14.731Z,26.95
2023-05-04T12:54:09.159Z,26.30
2023-05-04T12:57:02.227Z,26.31
2023-05-04T12:59:54.808Z,26.73
2023-05-04T13:02:47.948Z,26.26
2023-05-04T13:05:40.986Z,26.72
2023-05-04T13:11:47.428Z,26.52
2023-05-04T13:14:40.153Z,26.45
2023-05-04T13:17:33.772Z,26.42
2023-05-04T13:23:37.516Z,26.77
2023-05-04T13:26:29.692Z,26.80
2023-05-04T13:29:24.379Z,26.55
2023-05-04T13:32:34.347Z,26.68
2023-05-04T13:35:24.240Z,26.19
2023-05-04T13:38:16.792Z,26.07
2023-05-04T13:41:09.522Z,25.94
2023-05-04T13:44:01.659Z,26.30
2023-05-04T13:46:56.305Z,26.44
2023-05-04T13:49:49.026Z,26.23
2023-05-04T13:52:41.573Z,26.42
2023-05-04T13:55:33.832Z,26.34
2023-05-04T13:58:27.241Z,26.17
2023-05-04T14:01:19.583Z,26.11
2023-05-04T14:04:13.109Z,26.56
2023-05-04T14:07:05.668Z,26.39
2023-05-04T14:09:59.678Z,26.05
2023-05-04T14:12:52.991Z,26.26
2023-05-04T14:15:45.860Z,26.30
2023-05-04T14:21:47.531Z,26.53
2023-05-04T14:24:40.692Z,26.72
2023-05-04T14:27:35.170Z,26.44
2023-05-04T14:30:41.803Z,26.54
2023-05-04T14:33:34.575Z,26.77
2023-05-04T14:36:26.769Z,26.61
2023-05-04T14:39:21.237Z,26.71
2023-05-04T14:42:13.663Z,26.59
2023-05-04T14:45:07.952Z,26.66
2023-05-04T14:51:22.781Z,26.77
2023-05-04T14:57:33.534Z,26.50
2023-05-04T15:00:25.980Z,26.57
2023-05-04T15:03:19.127Z,26.90
2023-05-04T15:06:12.263Z,27.03
2023-05-04T15:12:21.391Z,26.47
2023-05-04T15:15:15.425Z,26.16
2023-05-04T15:21:36.560Z,25.93
2023-05-04T15:24:28.498Z,25.99
2023-05-04T15:27:20.772Z,25.95
2023-05-04T15:30:16.392Z,26.13
2023-05-04T15:33:10.442Z,26.36
2023-05-04T15:36:06.676Z,25.98
2023-05-04T15:38:59.775Z,25.67
2023-05-04T15:41:52.740Z,25.79
2023-05-04T15:44:45.715Z,25.92
2023-05-04T15:47:40.766Z,25.79
2023-05-04T15:50:33.640Z,25.86
2023-05-04T15:53:26.946Z,25.62
2023-05-04T15:56:20.407Z,25.51
2023-05-04T15:59:12.955Z,25.64
2023-05-04T16:02:07.964Z,25.97
2023-05-04T16:05:37.990Z,26.02
2023-05-04T16:08:32.132Z,25.56
2023-05-04T16:14:53.903Z,24.93
2023-05-04T16:17:46.931Z,24.58
2023-05-04T16:20:39.974Z,24.58
2023-05-04T16:23:33.810Z,24.40
2023-05-04T16:26:26.774Z,24.23
2023-05-04T16:29:19.703Z,24.12
2023-05-04T16:32:12.747Z,24.08
2023-05-04T16:35:06.991Z,24.00
2023-05-04T16:38:00.328Z,23.88
2023-05-04T16:40:53.997Z,23.67
2023-05-04T16:43:48.784Z,23.66
2023-05-04T16:49:54.076Z,23.10
2023-05-04T16:52:46.917Z,23.04
2023-05-04T16:55:40.668Z,22.97
2023-05-04T16:58:35.311Z,22.91
2023-05-04T17:01:31.868Z,22.88
2023-05-04T17:04:27.308Z,22.87
2023-05-04T17:07:19.767Z,22.85
2023-05-04T17:10:12.969Z,23.01
2023-05-04T17:13:07.015Z,22.85
2023-05-04T17:16:01.085Z,22.78
2023-05-04T17:18:53.943Z,22.69
2023-05-04T17:21:46.832Z,22.66
2023-05-04T17:24:40.017Z,22.31
2023-05-04T17:27:32.361Z,22.22
2023-05-04T17:30:24.827Z,22.16
2023-05-04T17:33:19.033Z,22.13
2023-05-04T17:36:12.437Z,21.99
2023-05-04T17:39:04.987Z,21.95
2023-05-04T17:41:58.235Z,21.82
2023-05-04T17:44:50.950Z,21.72
2023-05-04T17:51:01.401Z,21.45
2023-05-04T17:53:53.821Z,21.34
2023-05-04T17:56:46.686Z,21.07
2023-05-04T18:03:00.871Z,20.78
2023-05-04T18:05:53.789Z,20.65
2023-05-04T18:08:48.077Z,20.41
2023-05-04T18:11:40.935Z,20.17
2023-05-04T18:14:34.001Z,19.95
2023-05-04T18:17:28.568Z,19.56
2023-05-04T18:20:20.939Z,19.27
2023-05-04T18:23:13.782Z,19.13
2023-05-04T18:26:07.982Z,19.15
2023-05-04T18:29:07.913Z,19.11
2023-05-04T18:32:10.644Z,19.01
2023-05-04T18:35:04.033Z,18.88
2023-05-04T18:37:56.781Z,18.69
2023-05-04T18:40:53.380Z,18.53
2023-05-04T18:43:47.276Z,18.34
2023-05-04T18:46:40.242Z,18.17
2023-05-04T18:49:32.703Z,18.01
2023-05-04T18:52:25.890Z,17.71
2023-05-04T18:55:18.804Z,17.52
2023-05-04T18:58:12.255Z,17.24
2023-05-04T19:01:06.402Z,16.96
2023-05-04T19:07:11.171Z,16.68
2023-05-04T19:10:03.933Z,16.63
2023-05-04T19:12:57.517Z,16.56
2023-05-04T19:15:49.932Z,16.63
2023-05-04T19:18:45.512Z,16.70
2023-05-04T19:21:37.729Z,16.57
2023-05-04T19:27:50.734Z,16.36
2023-05-04T19:30:43.656Z,16.16
2023-05-04T19:33:47.295Z,16.10
2023-05-04T19:36:42.136Z,15.95
2023-05-04T19:39:34.773Z,15.75
2023-05-04T19:42:28.226Z,15.70
2023-05-04T19:45:20.801Z,15.60
2023-05-04T19:48:16.216Z,15.48
2023-05-04T19:51:08.910Z,15.36
2023-05-04T19:54:03.294Z,15.20
2023-05-04T20:00:13.122Z,15.08
2023-05-04T20:03:06.020Z,14.96
2023-05-04T20:05:59.107Z,14.96
2023-05-04T20:08:58.245Z,15.01
2023-05-04T20:11:52.235Z,14.99
2023-05-04T20:14:44.998Z,15.09
2023-05-04T20:17:37.967Z,15.18
2023-05-04T20:20:30.660Z,15.19
2023-05-04T20:23:23.030Z,15.22
2023-05-04T20:29:29.995Z,15.20
2023-05-04T20:32:22.707Z,15.17
2023-05-04T20:38:45.003Z,15.27
2023-05-04T20:42:15.114Z,15.08
2023-05-04T20:45:09.983Z,15.01
2023-05-04T20:48:20.102Z,14.90
2023-05-04T20:51:14.340Z,14.92
2023-05-04T20:54:07.956Z,14.95
2023-05-04T20:56:56.414Z,14.97
2023-05-04T20:59:49.015Z,14.82
2023-05-04T21:02:43.474Z,14.79
2023-05-04T21:05:39.069Z,14.85
2023-05-04T21:08:32.122Z,14.90
2023-05-04T21:11:24.944Z,14.83
2023-05-04T21:17:49.709Z,14.72
2023-05-04T21:21:20.066Z,14.68
2023-05-04T21:24:13.884Z,14.62
2023-05-04T21:27:22.983Z,14.58
2023-05-04T21:30:13.804Z,14.62
2023-05-04T21:33:08.113Z,14.68
2023-05-04T21:36:11.000Z,14.72
2023-05-04T21:39:02.461Z,14.64
2023-05-04T21:41:54.636Z,14.67
2023-05-04T21:44:47.037Z,14.54
2023-05-04T21:47:39.753Z,14.43
2023-05-04T21:50:34.167Z,14.36
2023-05-04T21:53:26.946Z,14.13
2023-05-04T21:56:19.980Z,13.85
2023-05-04T21:59:12.707Z,13.63
2023-05-04T22:02:06.485Z,13.54
2023-05-04T22:04:58.979Z,13.40
2023-05-04T22:07:53.090Z,13.18
2023-05-04T22:10:59.869Z,12.82
2023-05-04T22:13:53.000Z,12.68
2023-05-04T22:16:46.378Z,12.65
2023-05-04T22:19:38.593Z,12.55
2023-05-04T22:22:31.234Z,12.57
2023-05-04T22:25:25.598Z,12.65
2023-05-04T22:28:18.072Z,12.64
2023-05-04T22:31:10.799Z,12.69
2023-05-04T22:34:03.635Z,12.75
2023-05-04T22:36:56.086Z,12.82
2023-05-04T22:39:48.665Z,12.84
2023-05-04T22:46:03.010Z,12.83
2023-05-04T22:52:20.791Z,12.72
2023-05-04T22:58:20.702Z,12.54
2023-05-04T23:04:26.455Z,12.51
2023-05-04T23:07:18.969Z,12.47
2023-05-04T23:10:11.725Z,12.31
2023-05-04T23:13:04.663Z,12.22
2023-05-04T23:15:56.860Z,12.17
2023-05-04T23:18:49.860Z,12.18
2023-05-04T23:21:44.279Z,12.15
2023-05-04T23:24:37.213Z,12.12
2023-05-04T23:27:26.769Z,12.13
2023-05-04T23:30:20.117Z,12.13
2023-05-04T23:33:45.058Z,12.09
2023-05-04T23:36:31.412Z,11.94
2023-05-04T23:42:37.435Z,11.71
2023-05-04T23:45:23.259Z,11.77
2023-05-04T23:48:09.483Z,11.73
2023-05-04T23:50:57.383Z,11.71
2023-05-04T23:53:43.392Z,11.71
2023-05-04T23:56:29.777Z,11.62
2023-05-04T23:59:17.283Z,11.62
